메인 페이지
METAR-TAF:

METAR-TAF

공항 :

시안 셴양 국제공항

시안, 중국

위도: 34-26N, 경도: 108-45E, 고도: 479m

현재 날씨관측

예보는 1 시간 4분 전, 04:00시(UTC)에 발표되었습니다.
남서4kt
온도 9°C
습도 71%
기압 1027 hPa
시정: 7000m
고도 3000ft 상공 구름 보통
고도 5000ft 상공 흐림

METAR: ZLXY 150400Z 23002MPS 7000 SCT030 OVC050 09/04 Q1027 NOSIG

시각: 13:04 (05:04 UTC)

예보

예보는 9 시간 42분 전, 19:22시(UTC)에 발표되었습니다.
예보 대상 시간: 15일 00시부터 15일 24시까지 (UTC)
6kt
시정: 3000m
고도 6000ft 상공 흐림
박무
전환 중
15일 02시부터 15일 03시까지 (UTC)
시정: 2800m
약한비, 박무
전환 중
15일 03시부터 15일 04시까지 (UTC)
시정: 3000m

TAF: ZLXY 141922Z 1500/1524 26003MPS 3000 BR OVC060 TX09/1507Z TN07/1500Z BECMG 1502/1503 2800 -RA BR BECMG 1503/1504 3000

4,000개 이상의 공항 관측 자료 및 예보 (METAR 및 TAF 보고).

지도상에서 검색 가능한 기상관측소가 노란 점과 빨간 점으로 표시되어 있습니다.

기상관측소 명을 보려면 표시 위로 마우스를 이동하세요.

날씨 관측과 예보를 보려면 클릭하세요.

지도 변경 : 확대하려면 엑스 표시가 있는 녹색 버튼, 축소하려면 빼기 표시가 있는 녹색 버튼, 다음 페이지의 지도를 보려면 녹색 화살표를 클릭하세요.


METAR-TAF: